createdAt,value
2022-11-22T00:04:24.196Z,7.11
2022-11-22T00:06:52.928Z,7.09
2022-11-22T00:09:19.740Z,7.14
2022-11-22T00:11:46.531Z,7.13
2022-11-22T00:14:13.317Z,7.15
2022-11-22T00:16:40.218Z,7.15
2022-11-22T00:19:07.010Z,7.17
2022-11-22T00:21:33.742Z,7.13
2022-11-22T00:24:00.627Z,7.11
2022-11-22T00:26:27.889Z,7.10
2022-11-22T00:28:54.619Z,7.12
2022-11-22T00:31:21.509Z,7.18
2022-11-22T00:33:48.255Z,7.11
2022-11-22T00:36:17.338Z,6.99
2022-11-22T00:38:44.736Z,7.00
2022-11-22T00:41:11.514Z,6.94
2022-11-22T00:43:38.986Z,6.86
2022-11-22T00:46:05.664Z,6.87
2022-11-22T00:48:35.912Z,6.87
2022-11-22T00:51:02.707Z,6.87
2022-11-22T00:53:29.423Z,6.83
2022-11-22T00:55:56.321Z,6.79
2022-11-22T00:58:23.065Z,6.82
2022-11-22T01:00:56.067Z,6.76
2022-11-22T01:03:23.450Z,6.73
2022-11-22T01:05:50.265Z,6.73
2022-11-22T01:08:17.127Z,6.73
2022-11-22T01:10:43.852Z,6.69
2022-11-22T01:13:11.942Z,6.59
2022-11-22T01:15:38.747Z,6.53
2022-11-22T01:18:05.659Z,6.52
2022-11-22T01:20:32.603Z,6.47
2022-11-22T01:22:59.447Z,6.47
2022-11-22T01:25:26.443Z,6.39
2022-11-22T01:27:56.058Z,6.35
2022-11-22T01:30:22.979Z,6.26
2022-11-22T01:32:49.754Z,6.17
2022-11-22T01:35:16.679Z,6.08
2022-11-22T01:37:43.507Z,6.03
2022-11-22T01:40:10.755Z,5.99
2022-11-22T01:42:50.402Z,5.93
2022-11-22T01:45:29.596Z,5.91
2022-11-22T01:48:02.331Z,5.85
2022-11-22T01:50:30.077Z,5.77
2022-11-22T01:52:59.998Z,5.78
2022-11-22T01:55:26.791Z,5.72
2022-11-22T01:57:54.043Z,5.64
2022-11-22T02:00:21.017Z,5.58
2022-11-22T02:02:51.519Z,5.50
2022-11-22T02:05:19.343Z,5.42
2022-11-22T02:08:04.924Z,5.37
2022-11-22T02:10:36.277Z,5.29
2022-11-22T02:13:04.160Z,5.23
2022-11-22T02:15:31.456Z,5.22
2022-11-22T02:17:58.284Z,5.16
2022-11-22T02:20:25.416Z,5.11
2022-11-22T02:23:01.304Z,5.06
2022-11-22T02:25:37.446Z,5.03
2022-11-22T02:28:04.994Z,5.02
2022-11-22T02:30:31.846Z,4.99
2022-11-22T02:32:58.795Z,4.94
2022-11-22T02:35:26.787Z,4.91
2022-11-22T02:38:01.609Z,4.89
2022-11-22T02:40:30.600Z,4.85
2022-11-22T02:45:44.566Z,4.72
2022-11-22T02:48:25.525Z,4.67
2022-11-22T02:51:47.299Z,4.67
2022-11-22T02:57:25.392Z,4.57
2022-11-22T03:02:47.037Z,4.47
2022-11-22T03:05:17.668Z,4.43
2022-11-22T03:08:11.563Z,4.35
2022-11-22T03:14:04.930Z,4.20
2022-11-22T03:16:36.974Z,4.01
2022-11-22T03:19:19.251Z,3.97
2022-11-22T03:24:57.970Z,3.98
2022-11-22T03:27:49.206Z,3.87
2022-11-22T03:30:19.457Z,3.80
2022-11-22T03:33:14.952Z,3.74
2022-11-22T03:35:54.827Z,3.76
2022-11-22T03:38:33.548Z,3.79
2022-11-22T03:41:19.570Z,3.76
2022-11-22T03:46:49.544Z,3.76
2022-11-22T03:50:21.491Z,3.71
2022-11-22T03:53:50.941Z,3.69
2022-11-22T03:56:41.879Z,3.69
2022-11-22T03:59:23.734Z,3.66
2022-11-22T04:01:51.690Z,3.61
2022-11-22T04:04:46.527Z,3.51
2022-11-22T04:07:33.542Z,3.49
2022-11-22T04:10:38.570Z,3.51
2022-11-22T04:13:19.704Z,3.43
2022-11-22T04:18:51.641Z,3.39
2022-11-22T04:21:49.042Z,3.37
2022-11-22T04:25:37.305Z,3.28
2022-11-22T04:27:32.510Z,3.26
2022-11-22T04:30:42.361Z,3.21
2022-11-22T04:39:15.475Z,2.97
2022-11-22T04:45:07.049Z,2.91
2022-11-22T04:50:59.119Z,2.97
2022-11-22T04:55:36.869Z,2.99
2022-11-22T04:58:04.111Z,2.92
2022-11-22T05:00:31.506Z,2.83
2022-11-22T05:02:59.292Z,2.78
2022-11-22T05:05:27.399Z,2.71
2022-11-22T05:07:54.419Z,2.63
2022-11-22T05:10:26.117Z,2.63
2022-11-22T05:12:53.565Z,2.67
2022-11-22T05:15:20.646Z,2.63
2022-11-22T05:17:47.664Z,2.62
2022-11-22T05:20:15.175Z,2.68
2022-11-22T05:23:00.573Z,2.65
2022-11-22T05:25:28.168Z,2.62
2022-11-22T05:27:55.475Z,2.64
2022-11-22T05:30:22.633Z,2.68
2022-11-22T05:32:50.132Z,2.72
2022-11-22T05:35:17.023Z,2.72
2022-11-22T05:37:43.920Z,2.68
2022-11-22T05:40:11.677Z,2.69
2022-11-22T05:42:38.626Z,2.72
2022-11-22T05:45:05.870Z,2.71
2022-11-22T05:47:36.533Z,2.65
2022-11-22T05:50:04.081Z,2.61
2022-11-22T05:52:31.051Z,2.71
2022-11-22T05:54:58.313Z,2.71
2022-11-22T05:57:25.389Z,2.65
2022-11-22T05:59:52.415Z,2.65
2022-11-22T06:02:19.437Z,2.66
2022-11-22T06:04:46.558Z,2.69
2022-11-22T06:07:13.502Z,2.70
2022-11-22T06:09:40.443Z,2.69
2022-11-22T06:12:07.616Z,2.72
2022-11-22T06:14:39.959Z,2.74
2022-11-22T06:17:09.734Z,2.72
2022-11-22T06:19:36.895Z,2.66
2022-11-22T06:22:04.170Z,2.67
2022-11-22T06:24:31.129Z,2.65
2022-11-22T06:26:58.021Z,2.69
2022-11-22T06:29:25.081Z,2.66
2022-11-22T06:31:52.086Z,2.57
2022-11-22T06:34:19.070Z,2.53
2022-11-22T06:36:46.747Z,2.53
2022-11-22T06:39:13.965Z,2.65
2022-11-22T06:41:40.845Z,2.68
2022-11-22T06:44:09.825Z,2.69
2022-11-22T06:46:37.806Z,2.75
2022-11-22T06:49:04.612Z,2.85
2022-11-22T06:51:32.822Z,2.83
2022-11-22T06:53:59.933Z,2.83
2022-11-22T06:56:29.812Z,2.85
2022-11-22T06:58:57.831Z,2.89
2022-11-22T07:01:28.931Z,3.03
2022-11-22T07:03:58.694Z,3.08
2022-11-22T07:06:31.539Z,3.12
2022-11-22T07:08:59.508Z,3.17
2022-11-22T07:11:27.295Z,3.26
2022-11-22T07:13:57.298Z,3.33
2022-11-22T07:16:27.843Z,3.39
2022-11-22T07:18:54.713Z,3.43
2022-11-22T07:21:25.059Z,3.51
2022-11-22T07:23:53.959Z,3.62
2022-11-22T07:26:22.849Z,3.74
2022-11-22T07:28:49.859Z,3.81
2022-11-22T07:31:18.529Z,3.93
2022-11-22T07:33:45.946Z,4.02
2022-11-22T07:36:18.416Z,4.10
2022-11-22T07:38:46.019Z,4.19
2022-11-22T07:41:13.162Z,4.35
2022-11-22T07:43:39.999Z,4.46
2022-11-22T07:46:18.012Z,4.51
2022-11-22T07:48:44.901Z,4.55
2022-11-22T07:51:12.092Z,4.67
2022-11-22T07:53:38.968Z,4.88
2022-11-22T07:56:06.703Z,5.01
2022-11-22T07:58:35.359Z,5.07
2022-11-22T08:01:14.093Z,5.14
2022-11-22T08:03:42.264Z,5.24
2022-11-22T08:06:10.418Z,5.39
2022-11-22T08:08:37.754Z,5.49
2022-11-22T08:11:06.289Z,5.68
2022-11-22T08:13:34.015Z,5.82
2022-11-22T08:16:07.104Z,5.98
2022-11-22T08:18:35.287Z,6.08
2022-11-22T08:21:04.329Z,6.23
2022-11-22T08:23:31.244Z,6.37
2022-11-22T08:25:59.463Z,6.57
2022-11-22T08:28:27.451Z,6.68
2022-11-22T08:30:59.451Z,6.85
2022-11-22T08:33:26.436Z,6.95
2022-11-22T08:35:53.554Z,7.00
2022-11-22T08:38:20.443Z,7.17
2022-11-22T08:40:47.621Z,7.26
2022-11-22T08:43:14.569Z,7.39
2022-11-22T08:45:41.712Z,7.53
2022-11-22T08:48:08.849Z,7.70
2022-11-22T08:50:35.973Z,7.85
2022-11-22T08:53:02.834Z,8.00
2022-11-22T08:55:29.820Z,8.06
2022-11-22T08:58:00.425Z,8.19
2022-11-22T09:00:32.886Z,8.26
2022-11-22T09:03:00.184Z,8.26
2022-11-22T09:05:27.089Z,8.31
2022-11-22T09:10:41.258Z,8.46
2022-11-22T09:13:10.188Z,8.58
2022-11-22T09:15:37.008Z,8.66
2022-11-22T09:18:04.415Z,8.73
2022-11-22T09:20:31.541Z,8.82
2022-11-22T09:22:58.540Z,8.93
2022-11-22T09:25:25.651Z,9.04
2022-11-22T09:27:52.681Z,9.16
2022-11-22T09:30:19.791Z,9.25
2022-11-22T09:32:46.623Z,9.40
2022-11-22T09:35:17.319Z,9.49
2022-11-22T09:37:44.336Z,9.53
2022-11-22T09:40:11.722Z,9.56
2022-11-22T09:43:11.743Z,9.70
2022-11-22T09:45:57.712Z,9.81
2022-11-22T09:48:53.450Z,9.88
2022-11-22T09:51:26.549Z,9.99
2022-11-22T09:54:01.308Z,10.11
2022-11-22T09:56:30.568Z,10.24
2022-11-22T09:59:21.889Z,10.38
2022-11-22T10:02:03.464Z,10.55
2022-11-22T10:04:41.070Z,10.56
2022-11-22T10:07:30.394Z,10.60
2022-11-22T10:10:08.085Z,10.73
2022-11-22T10:12:42.392Z,10.84
2022-11-22T10:15:27.883Z,10.81
2022-11-22T10:17:57.527Z,10.88
2022-11-22T10:20:30.628Z,10.92
2022-11-22T10:22:59.023Z,10.90
2022-11-22T10:25:48.824Z,10.95
2022-11-22T10:28:19.708Z,11.06
2022-11-22T10:31:05.095Z,11.15
2022-11-22T10:33:39.966Z,11.37
2022-11-22T10:36:28.832Z,11.41
2022-11-22T10:39:21.138Z,11.47
2022-11-22T10:41:54.042Z,11.44
2022-11-22T10:44:46.400Z,11.39
2022-11-22T10:47:57.089Z,11.41
2022-11-22T10:50:46.154Z,11.34
2022-11-22T10:53:31.456Z,11.37
2022-11-22T10:56:08.094Z,11.67
2022-11-22T10:58:34.926Z,11.63
2022-11-22T11:01:25.218Z,11.69
2022-11-22T11:03:58.432Z,11.87
2022-11-22T11:07:15.542Z,11.99
2022-11-22T11:12:58.935Z,11.95
2022-11-22T11:15:50.167Z,11.94
2022-11-22T11:18:27.987Z,11.95
2022-11-22T11:20:55.100Z,11.91
2022-11-22T11:23:22.203Z,11.87
2022-11-22T11:25:51.373Z,11.85
2022-11-22T11:28:23.119Z,11.78
2022-11-22T11:31:07.112Z,11.54
2022-11-22T11:33:38.388Z,11.60
2022-11-22T11:36:24.558Z,11.51
2022-11-22T11:38:55.942Z,11.33
2022-11-22T11:41:29.765Z,11.41
2022-11-22T11:43:59.389Z,11.48
2022-11-22T11:46:28.719Z,11.51
2022-11-22T11:49:17.011Z,11.57
2022-11-22T11:51:53.857Z,11.55
2022-11-22T11:54:24.213Z,11.54
2022-11-22T11:57:03.669Z,11.55
2022-11-22T11:59:39.502Z,11.62
2022-11-22T12:02:28.348Z,11.57
2022-11-22T12:05:26.717Z,11.61
2022-11-22T12:07:53.706Z,11.63
2022-11-22T12:10:36.171Z,11.64
2022-11-22T12:13:30.289Z,11.64
2022-11-22T12:16:24.573Z,11.67
2022-11-22T12:19:00.606Z,11.88
2022-11-22T12:21:41.979Z,12.07
2022-11-22T12:24:43.153Z,12.12
2022-11-22T12:27:05.582Z,12.10
2022-11-22T12:29:39.070Z,12.13
2022-11-22T12:32:14.155Z,12.15
2022-11-22T12:34:53.501Z,12.16
2022-11-22T12:37:48.574Z,12.12
2022-11-22T12:40:27.869Z,12.10
2022-11-22T12:43:05.629Z,12.14
2022-11-22T12:45:38.295Z,12.23
2022-11-22T12:48:12.898Z,12.06
2022-11-22T12:51:03.505Z,11.99
2022-11-22T12:53:38.543Z,11.95
2022-11-22T12:56:34.022Z,12.01
2022-11-22T12:59:29.525Z,11.98
2022-11-22T13:02:05.830Z,11.94
2022-11-22T13:04:46.034Z,11.77
2022-11-22T13:07:22.419Z,11.88
2022-11-22T13:09:57.128Z,11.82
2022-11-22T13:12:33.765Z,11.73
2022-11-22T13:15:01.974Z,11.70
2022-11-22T13:17:35.130Z,11.71
2022-11-22T13:20:43.453Z,11.71
2022-11-22T13:23:28.611Z,11.65
2022-11-22T13:26:19.043Z,11.59
2022-11-22T13:28:47.070Z,11.53
2022-11-22T13:31:16.626Z,11.46
2022-11-22T13:33:59.156Z,11.51
2022-11-22T13:36:32.458Z,11.53
2022-11-22T13:39:02.377Z,11.51
2022-11-22T13:41:35.196Z,11.49
2022-11-22T13:44:24.877Z,11.42
2022-11-22T13:47:15.237Z,11.32
2022-11-22T13:49:48.690Z,11.18
2022-11-22T13:52:16.211Z,11.17
2022-11-22T13:54:56.531Z,11.16
2022-11-22T13:57:38.191Z,11.14
2022-11-22T14:00:14.347Z,11.01
2022-11-22T14:02:46.197Z,11.11
2022-11-22T14:05:21.467Z,11.12
2022-11-22T14:07:59.642Z,11.12
2022-11-22T14:10:41.848Z,11.05
2022-11-22T14:13:29.698Z,11.12
2022-11-22T14:16:03.154Z,11.08
2022-11-22T14:18:57.242Z,10.95
2022-11-22T14:21:54.898Z,10.97
2022-11-22T14:24:37.030Z,10.92
2022-11-22T14:27:23.896Z,10.92
2022-11-22T14:30:15.538Z,10.85
2022-11-22T14:32:49.482Z,10.80
2022-11-22T14:35:29.278Z,10.79
2022-11-22T14:38:00.067Z,10.85
2022-11-22T14:40:41.420Z,10.74
2022-11-22T14:43:11.368Z,10.82
2022-11-22T14:45:43.832Z,10.69
2022-11-22T14:48:16.604Z,10.58
2022-11-22T14:50:48.789Z,10.57
2022-11-22T14:53:44.138Z,10.57
2022-11-22T14:56:14.075Z,10.61
2022-11-22T14:59:03.589Z,10.62
2022-11-22T15:01:58.644Z,10.47
2022-11-22T15:09:18.823Z,10.38
2022-11-22T15:09:23.701Z,10.26
2022-11-22T15:10:43.128Z,10.20
2022-11-22T15:13:23.416Z,10.06
2022-11-22T15:57:38.718Z,9.57
2022-11-22T16:00:26.848Z,9.53
2022-11-22T16:03:08.273Z,9.49
2022-11-22T16:06:07.663Z,9.54
2022-11-22T16:08:32.840Z,9.39
2022-11-22T16:11:04.502Z,9.46
2022-11-22T16:13:43.963Z,9.44
2022-11-22T16:16:24.341Z,9.48
2022-11-22T16:19:37.496Z,9.48
2022-11-22T16:22:35.757Z,9.54
2022-11-22T16:25:36.820Z,9.62
2022-11-22T16:28:43.949Z,9.68
2022-11-22T16:31:59.978Z,9.64
2022-11-22T16:34:34.050Z,9.73
2022-11-22T16:37:14.246Z,9.73
2022-11-22T16:39:51.048Z,9.66
2022-11-22T16:42:21.343Z,9.63
2022-11-22T16:44:57.281Z,9.65
2022-11-22T16:47:38.415Z,9.62
2022-11-22T16:50:33.323Z,9.56
2022-11-22T16:53:02.845Z,9.58
2022-11-22T16:55:31.304Z,9.49
2022-11-22T16:58:17.010Z,9.40
2022-11-22T17:01:00.631Z,9.45
2022-11-22T17:03:41.681Z,9.45
2022-11-22T17:06:19.278Z,9.53
2022-11-22T17:09:10.004Z,9.48
2022-11-22T17:11:42.133Z,9.61
2022-11-22T17:14:50.431Z,9.69
2022-11-22T17:18:10.968Z,9.67
2022-11-22T17:20:46.258Z,9.93
2022-11-22T17:23:39.394Z,9.99
2022-11-22T17:26:16.897Z,10.01
2022-11-22T17:29:42.897Z,9.92
2022-11-22T17:31:43.462Z,9.92
2022-11-22T17:34:20.181Z,9.96
2022-11-22T17:36:50.932Z,10.00
2022-11-22T17:39:18.960Z,10.08
2022-11-22T17:41:49.296Z,10.02
2022-11-22T17:44:21.634Z,9.99
2022-11-22T17:46:52.374Z,9.88
2022-11-22T17:49:20.729Z,10.00
2022-11-22T17:52:01.126Z,10.19
2022-11-22T17:57:41.880Z,10.32
2022-11-22T18:00:11.806Z,10.53
2022-11-22T18:02:46.332Z,10.51
2022-11-22T18:05:29.533Z,10.58
2022-11-22T18:08:12.360Z,10.56
2022-11-22T18:10:51.090Z,10.62
2022-11-22T18:13:24.302Z,10.57
2022-11-22T18:16:01.650Z,10.69
2022-11-22T18:18:57.396Z,10.71
2022-11-22T18:21:39.129Z,10.53
2022-11-22T18:24:13.327Z,10.63
2022-11-22T18:26:53.998Z,10.68
2022-11-22T18:30:16.641Z,10.61
2022-11-22T18:33:04.574Z,10.57
2022-11-22T18:38:24.213Z,10.58
2022-11-22T18:40:52.594Z,10.65
2022-11-22T18:43:19.538Z,10.62
2022-11-22T18:45:46.392Z,10.64
2022-11-22T18:48:14.172Z,10.66
2022-11-22T18:50:41.197Z,10.66
2022-11-22T18:53:08.461Z,10.53
2022-11-22T18:55:35.481Z,10.62
2022-11-22T18:58:02.719Z,10.58
2022-11-22T19:00:29.840Z,10.60
2022-11-22T19:02:57.322Z,10.70
2022-11-22T19:05:24.712Z,10.68
2022-11-22T19:07:51.700Z,10.71
2022-11-22T19:10:18.723Z,10.74
2022-11-22T19:12:46.313Z,10.77
2022-11-22T19:15:18.013Z,10.73
2022-11-22T19:17:45.711Z,10.79
2022-11-22T19:20:47.196Z,10.82
2022-11-22T19:23:23.986Z,10.91
2022-11-22T19:26:04.635Z,10.94
2022-11-22T19:28:58.423Z,10.98
2022-11-22T19:31:32.099Z,10.92
2022-11-22T19:34:01.676Z,10.94
2022-11-22T19:36:43.541Z,10.94
2022-11-22T19:39:15.303Z,10.99
2022-11-22T19:41:45.394Z,10.99
2022-11-22T19:44:22.926Z,10.88
2022-11-22T19:46:51.349Z,10.86
2022-11-22T19:49:24.281Z,10.99
2022-11-22T19:51:52.912Z,10.94
2022-11-22T19:54:22.745Z,10.93
2022-11-22T19:56:51.860Z,10.95
2022-11-22T19:59:19.952Z,10.99
2022-11-22T20:01:48.244Z,11.00
2022-11-22T20:04:17.230Z,11.00
2022-11-22T20:06:50.112Z,11.02
2022-11-22T20:09:18.065Z,10.97
2022-11-22T20:11:45.761Z,10.97
2022-11-22T20:14:13.075Z,10.97
2022-11-22T20:16:43.363Z,10.94
2022-11-22T20:19:12.637Z,10.99
2022-11-22T20:21:40.417Z,11.05
2022-11-22T20:24:08.427Z,11.10
2022-11-22T20:26:38.712Z,11.22
2022-11-22T20:29:13.424Z,11.25
2022-11-22T20:31:45.658Z,11.41
2022-11-22T20:34:22.861Z,11.51
2022-11-22T20:36:52.517Z,11.49
2022-11-22T20:39:19.622Z,11.50
2022-11-22T20:41:46.674Z,11.49
2022-11-22T20:44:14.234Z,11.59
2022-11-22T20:46:42.167Z,11.58
2022-11-22T20:52:14.300Z,11.56
2022-11-22T20:55:04.784Z,11.55
2022-11-22T20:57:59.204Z,11.54
2022-11-22T21:00:41.634Z,11.57
2022-11-22T21:03:44.958Z,11.65
2022-11-22T21:06:25.785Z,11.64
2022-11-22T21:09:12.953Z,11.63
2022-11-22T21:15:24.950Z,11.77
2022-11-22T21:24:58.493Z,11.66
2022-11-22T21:27:23.981Z,11.61
2022-11-22T21:29:50.986Z,11.62
2022-11-22T21:32:18.548Z,11.62
2022-11-22T21:34:52.370Z,11.57
2022-11-22T21:41:10.864Z,11.57
2022-11-22T21:43:54.517Z,11.60
2022-11-22T21:46:21.497Z,11.61
2022-11-22T21:49:17.731Z,11.59
2022-11-22T21:55:01.570Z,11.77
2022-11-22T21:57:33.074Z,11.77
2022-11-22T22:00:01.987Z,11.73
2022-11-22T22:02:34.042Z,11.79
2022-11-22T22:05:17.195Z,11.78
2022-11-22T22:11:06.519Z,11.84
2022-11-22T22:14:14.213Z,11.86
2022-11-22T22:17:05.110Z,11.80
2022-11-22T22:19:40.511Z,11.82
2022-11-22T22:22:42.736Z,11.75
2022-11-22T22:28:18.855Z,11.88
2022-11-22T22:30:53.513Z,11.88
2022-11-22T22:33:48.937Z,11.90
2022-11-22T22:36:45.086Z,11.89
2022-11-22T22:39:34.539Z,11.89
2022-11-22T22:42:09.117Z,11.85
2022-11-22T22:44:45.909Z,11.88
2022-11-22T22:47:23.394Z,11.88
2022-11-22T22:50:16.442Z,11.82
2022-11-22T22:53:12.064Z,11.75
2022-11-22T22:56:20.048Z,11.73
2022-11-22T22:59:06.242Z,11.72
2022-11-22T23:01:37.622Z,11.70
2022-11-22T23:04:13.711Z,11.73
2022-11-22T23:07:19.991Z,11.74
2022-11-22T23:10:51.125Z,11.80
2022-11-22T23:19:16.047Z,11.67
2022-11-22T23:24:46.714Z,11.74
2022-11-22T23:30:41.080Z,11.64
2022-11-22T23:33:27.349Z,11.66
2022-11-22T23:33:52.914Z,11.70
2022-11-22T23:36:15.753Z,11.71
2022-11-22T23:42:19.852Z,11.64
2022-11-22T23:44:56.720Z,11.63
2022-11-22T23:50:19.728Z,11.69
2022-11-22T23:52:47.873Z,11.65
2022-11-22T23:58:35.635Z,11.65
